Time;durP1;ratioP1;P1;durP2;ratioP2;P2;SDS_P1;SDS_P2;PMS_P1;PMS_P2;Temp;Humidity;BMP_temperature;BMP_pressure;BME280_temperature;BME280_humidity;BME280_pressure;Samples;Min_cycle;Max_cycle;Signal;HPM_P1;HPM_P2
2022/10/25 00:01:29;;;;;;;37.77;21.40;;;9.90;99.90;;;;;;4210768;28;20028;-62
2022/10/25 00:03:30;;;;;;;34.93;21.67;;;9.90;99.90;;;;;;4209766;28;20036;-62
2022/10/25 00:05:31;;;;;;;35.30;22.13;;;9.90;99.90;;;;;;4197810;28;20048;-62
2022/10/25 00:07:32;;;;;;;34.77;20.43;;;9.90;99.90;;;;;;4196369;28;20467;-63
2022/10/25 00:09:33;;;;;;;40.13;22.33;;;9.90;99.90;;;;;;4195144;28;20041;-64
2022/10/25 00:11:35;;;;;;;33.90;20.37;;;9.90;99.90;;;;;;4198697;28;20028;-64
2022/10/25 00:13:36;;;;;;;37.17;21.73;;;9.80;99.90;;;;;;4193949;28;20040;-62
2022/10/25 00:15:37;;;;;;;39.37;22.97;;;9.80;99.90;;;;;;4194515;28;20044;-64
2022/10/25 00:17:39;;;;;;;35.77;21.90;;;9.70;99.90;;;;;;4192987;28;20037;-62
2022/10/25 00:19:40;;;;;;;31.90;20.50;;;9.70;99.90;;;;;;4194944;28;20319;-64
2022/10/25 00:21:41;;;;;;;36.63;21.30;;;9.70;99.90;;;;;;4206067;28;20089;-62
2022/10/25 00:23:42;;;;;;;35.27;20.60;;;9.60;99.90;;;;;;4211394;28;20040;-64
2022/10/25 00:25:43;;;;;;;36.30;21.33;;;9.60;99.90;;;;;;4211157;28;20032;-62
2022/10/25 00:27:45;;;;;;;36.13;20.57;;;9.60;99.90;;;;;;4210127;28;20582;-62
2022/10/25 00:29:46;;;;;;;38.37;21.87;;;9.70;99.90;;;;;;4210527;28;20032;-62
2022/10/25 00:31:47;;;;;;;32.53;21.23;;;9.70;99.90;;;;;;4209866;28;20430;-63
2022/10/25 00:33:48;;;;;;;35.20;21.60;;;9.70;99.90;;;;;;4210396;28;20047;-62
2022/10/25 00:35:49;;;;;;;31.00;18.97;;;9.60;99.90;;;;;;4195112;28;20044;-62
2022/10/25 00:37:50;;;;;;;27.80;19.53;;;9.60;99.90;;;;;;4204139;28;20460;-64
2022/10/25 00:39:51;;;;;;;33.90;18.53;;;9.60;99.90;;;;;;4210539;28;20025;-62
2022/10/25 00:41:53;;;;;;;29.37;17.07;;;9.60;99.90;;;;;;4212042;28;20430;-63
2022/10/25 00:44:31;;;;;;;28.53;16.83;;;9.50;99.90;;;;;;4194369;28;20032;-63
2022/10/25 00:46:33;;;;;;;28.37;16.53;;;9.50;99.90;;;;;;4194825;28;20078;-61
2022/10/25 00:48:34;;;;;;;25.27;15.33;;;9.50;99.90;;;;;;4205389;28;20028;-62
2022/10/25 00:50:52;;;;;;;25.93;16.50;;;9.50;99.90;;;;;;4211415;28;20545;-63
2022/10/25 00:52:57;;;;;;;28.10;17.33;;;9.50;99.90;;;;;;4210278;28;20044;-61
2022/10/25 00:54:59;;;;;;;28.93;16.63;;;9.60;99.90;;;;;;4195738;28;20078;-62
2022/10/25 00:57:17;;;;;;;27.27;17.37;;;9.50;99.90;;;;;;4192944;28;20053;-62
2022/10/25 00:59:25;;;;;;;28.23;16.50;;;9.60;99.90;;;;;;4194839;28;20074;-62
2022/10/25 01:01:26;;;;;;;25.17;15.53;;;9.60;99.90;;;;;;4192625;28;20455;-62
2022/10/25 01:03:27;;;;;;;28.37;16.63;;;9.60;99.90;;;;;;4195681;28;20113;-62
2022/10/25 01:05:28;;;;;;;27.50;16.37;;;9.70;99.90;;;;;;4193462;28;20041;-62
2022/10/25 01:07:30;;;;;;;28.67;16.73;;;9.70;99.90;;;;;;4211856;28;20090;-62
2022/10/25 01:09:33;;;;;;;29.03;18.10;;;9.70;99.90;;;;;;4213461;28;20028;-61
2022/10/25 01:11:36;;;;;;;31.97;17.93;;;9.70;99.90;;;;;;4211379;28;20089;-62
2022/10/25 01:13:38;;;;;;;28.43;17.83;;;9.70;99.90;;;;;;4209750;28;20097;-61
2022/10/25 01:16:06;;;;;;;30.17;17.50;;;9.70;99.90;;;;;;4210153;28;20489;-61
2022/10/25 01:18:16;;;;;;;27.03;17.80;;;9.70;99.90;;;;;;4196880;28;20507;-62
2022/10/25 01:20:46;;;;;;;29.20;17.30;;;9.70;99.90;;;;;;4198562;28;20024;-63
2022/10/25 01:25:35;;;;;;;;;;;9.60;99.90;;;;;;4597654;22;20508;-64
2022/10/25 01:27:49;;;;;;;26.33;16.00;;;9.60;99.90;;;;;;4180373;28;19913;-61
2022/10/25 01:30:04;;;;;;;25.27;15.90;;;9.50;99.90;;;;;;4180496;28;20037;-61
2022/10/25 01:32:29;;;;;;;28.73;17.67;;;9.60;99.90;;;;;;4180106;28;20029;-62
2022/10/25 01:34:42;;;;;;;25.50;17.00;;;9.50;99.90;;;;;;4180536;28;20053;-62
2022/10/25 01:36:55;;;;;;;28.30;18.23;;;9.50;99.90;;;;;;4179952;28;20025;-62
2022/10/25 01:39:11;;;;;;;31.93;18.40;;;9.50;99.90;;;;;;4180969;28;20358;-62
2022/10/25 01:41:15;;;;;;;33.33;20.60;;;9.50;99.90;;;;;;4179875;28;20028;-62
2022/10/25 01:43:43;;;;;;;34.70;21.67;;;9.30;99.90;;;;;;4180276;28;20515;-61
2022/10/25 01:46:22;;;;;;;37.87;19.53;;;9.30;99.90;;;;;;4174335;28;20091;-62
2022/10/25 01:48:34;;;;;;;39.97;20.77;;;9.30;99.90;;;;;;4129727;28;20033;-62
2022/10/25 01:50:40;;;;;;;35.50;21.17;;;9.20;99.90;;;;;;4180545;28;20080;-63
2022/10/25 01:52:41;;;;;;;35.10;19.93;;;9.30;99.90;;;;;;4184166;28;20025;-62
2022/10/25 01:54:42;;;;;;;31.87;19.97;;;9.30;99.90;;;;;;4196651;28;20106;-62
2022/10/25 01:56:58;;;;;;;33.50;18.87;;;9.30;99.90;;;;;;4197461;28;20032;-62
2022/10/25 01:59:23;;;;;;;37.13;20.40;;;9.20;99.90;;;;;;4180127;28;20583;-62
2022/10/25 02:01:52;;;;;;;35.60;21.57;;;9.20;99.90;;;;;;4179877;28;20099;-62
2022/10/25 02:03:53;;;;;;;28.97;19.13;;;9.30;99.90;;;;;;4181492;28;20075;-62
2022/10/25 02:06:29;;;;;;;31.40;19.03;;;9.30;99.90;;;;;;4184605;28;20029;-62
2022/10/25 02:09:10;;;;;;;42.33;22.43;;;9.20;99.90;;;;;;4147109;28;20049;-63
2022/10/25 02:11:40;;;;;;;42.60;23.40;;;9.20;99.90;;;;;;4195822;28;20032;-62
2022/10/25 02:14:06;;;;;;;40.58;23.38;;;9.10;99.90;;;;;;4168375;28;20422;-61
2022/10/25 02:16:15;;;;;;;37.63;22.10;;;9.10;99.90;;;;;;4196022;28;20349;-62
2022/10/25 02:18:22;;;;;;;40.87;22.07;;;9.10;99.90;;;;;;4196671;28;20446;-62
2022/10/25 02:20:25;;;;;;;37.03;20.27;;;9.10;99.90;;;;;;4194530;28;20538;-63
2022/10/25 02:22:29;;;;;;;40.70;21.53;;;9.10;99.90;;;;;;4196073;28;20044;-62
2022/10/25 02:24:31;;;;;;;40.33;22.37;;;9.10;99.90;;;;;;4185234;28;20475;-61
2022/10/25 02:26:33;;;;;;;40.87;23.97;;;9.10;99.90;;;;;;4183107;28;20036;-63
2022/10/25 02:28:38;;;;;;;41.43;22.57;;;9.10;99.90;;;;;;4195694;28;20681;-63
2022/10/25 02:30:42;;;;;;;37.80;20.07;;;9.00;99.90;;;;;;4196438;28;20044;-64
2022/10/25 02:32:44;;;;;;;38.80;21.43;;;9.00;99.90;;;;;;4195763;28;20037;-62
2022/10/25 02:34:48;;;;;;;36.23;20.83;;;9.00;99.90;;;;;;4196794;28;20373;-63
2022/10/25 02:36:51;;;;;;;31.70;19.47;;;9.00;99.90;;;;;;4194895;28;20037;-63
2022/10/25 02:38:53;;;;;;;32.23;19.83;;;8.90;99.90;;;;;;4195724;28;20028;-62
2022/10/25 02:40:54;;;;;;;36.53;21.37;;;9.00;99.90;;;;;;4195303;28;20028;-62
2022/10/25 02:42:56;;;;;;;42.97;21.73;;;9.00;99.90;;;;;;4196581;28;20021;-62
2022/10/25 02:44:57;;;;;;;38.23;21.70;;;8.90;99.90;;;;;;4195085;28;20036;-63
2022/10/25 02:46:58;;;;;;;48.70;22.60;;;8.80;99.90;;;;;;4196141;28;20036;-62
2022/10/25 02:48:59;;;;;;;42.63;24.03;;;8.80;99.90;;;;;;4195815;28;20082;-64
2022/10/25 02:51:00;;;;;;;40.17;22.67;;;8.80;99.90;;;;;;4195894;28;20086;-63
2022/10/25 02:53:01;;;;;;;39.80;22.30;;;8.80;99.90;;;;;;4195856;28;20070;-62
2022/10/25 02:55:02;;;;;;;38.10;22.77;;;8.80;99.90;;;;;;4190311;28;20082;-63
2022/10/25 02:57:04;;;;;;;39.37;22.83;;;8.80;99.90;;;;;;4196692;28;20057;-63
2022/10/25 02:59:05;;;;;;;39.57;22.67;;;8.80;99.90;;;;;;4195387;28;20085;-62
2022/10/25 03:01:06;;;;;;;40.23;22.47;;;8.90;99.90;;;;;;4196393;28;20157;-63
2022/10/25 03:03:07;;;;;;;32.07;19.93;;;8.90;99.90;;;;;;4186999;28;20086;-62
2022/10/25 03:05:08;;;;;;;37.73;22.67;;;9.00;99.90;;;;;;4179693;28;20545;-62
2022/10/25 03:07:09;;;;;;;39.53;21.90;;;8.90;99.90;;;;;;4178550;28;20029;-62
2022/10/25 03:09:10;;;;;;;38.17;22.60;;;8.90;99.90;;;;;;4178914;28;20067;-62
2022/10/25 03:11:12;;;;;;;39.57;22.60;;;8.90;99.90;;;;;;4178224;28;20147;-62
2022/10/25 03:13:14;;;;;;;39.87;23.60;;;8.90;99.90;;;;;;4179550;28;20829;-62
2022/10/25 03:15:15;;;;;;;39.60;22.33;;;8.90;99.90;;;;;;4182017;28;20082;-62
2022/10/25 03:17:16;;;;;;;36.37;22.57;;;8.90;99.90;;;;;;4178993;28;20040;-60
2022/10/25 03:19:17;;;;;;;41.07;23.33;;;8.90;99.90;;;;;;4178680;28;20079;-62
2022/10/25 03:21:18;;;;;;;49.57;23.10;;;8.90;99.90;;;;;;4179924;28;20067;-64
2022/10/25 03:23:19;;;;;;;40.70;22.10;;;8.90;99.90;;;;;;4178844;28;20021;-63
2022/10/25 03:25:20;;;;;;;43.77;23.37;;;8.90;99.90;;;;;;4178287;28;20449;-62
2022/10/25 03:27:21;;;;;;;40.03;24.33;;;8.90;99.90;;;;;;4164494;28;20103;-62
2022/10/25 03:29:23;;;;;;;37.43;22.40;;;8.90;99.90;;;;;;4194743;28;20113;-61
2022/10/25 03:31:24;;;;;;;40.70;24.10;;;8.90;99.90;;;;;;4194511;28;20036;-62
2022/10/25 03:33:26;;;;;;;41.13;23.03;;;8.90;99.90;;;;;;4187346;28;20453;-62
2022/10/25 03:35:27;;;;;;;45.00;21.97;;;8.90;99.90;;;;;;4185338;28;20032;-62
2022/10/25 03:37:28;;;;;;;37.80;21.30;;;8.90;99.90;;;;;;4194515;28;20353;-63
2022/10/25 03:39:29;;;;;;;40.77;23.67;;;8.90;99.90;;;;;;4194833;28;20491;-63
2022/10/25 03:41:30;;;;;;;37.87;23.93;;;8.90;99.90;;;;;;4193803;28;20093;-63
2022/10/25 03:43:31;;;;;;;39.17;23.00;;;8.90;99.90;;;;;;4195646;28;20028;-63
2022/10/25 03:45:32;;;;;;;38.83;24.23;;;8.90;99.90;;;;;;4193702;28;20121;-65
2022/10/25 03:47:34;;;;;;;40.53;22.67;;;8.80;99.90;;;;;;4195177;28;20618;-65
2022/10/25 03:49:35;;;;;;;39.17;24.53;;;8.80;99.90;;;;;;4194618;28;20028;-65
2022/10/25 03:51:36;;;;;;;39.60;22.47;;;8.80;99.90;;;;;;4188217;28;20044;-65
2022/10/25 03:53:37;;;;;;;33.33;20.40;;;8.70;99.90;;;;;;4194768;28;20439;-63
2022/10/25 03:55:38;;;;;;;38.80;23.77;;;8.80;99.90;;;;;;4194270;28;20032;-62
2022/10/25 03:57:39;;;;;;;41.30;23.67;;;8.80;99.90;;;;;;4194992;28;20029;-63
2022/10/25 03:59:40;;;;;;;38.60;22.70;;;8.80;99.90;;;;;;4193345;28;20033;-63
2022/10/25 04:01:41;;;;;;;40.23;24.00;;;8.80;99.90;;;;;;4180330;28;20037;-62
2022/10/25 04:03:44;;;;;;;40.07;24.30;;;8.80;99.90;;;;;;4178691;28;20032;-62
2022/10/25 04:05:45;;;;;;;35.47;22.73;;;8.80;99.90;;;;;;4181871;28;20093;-63
2022/10/25 04:07:46;;;;;;;38.57;23.60;;;8.80;99.90;;;;;;4169301;28;20450;-62
2022/10/25 04:09:47;;;;;;;39.97;23.33;;;8.80;99.90;;;;;;4178160;28;20037;-63
2022/10/25 04:11:48;;;;;;;43.80;23.50;;;8.80;99.90;;;;;;4177006;28;20036;-63
2022/10/25 04:13:49;;;;;;;34.63;19.83;;;8.80;99.90;;;;;;4177718;28;20095;-63
2022/10/25 04:15:50;;;;;;;34.17;19.83;;;8.70;99.90;;;;;;4176949;28;20465;-62
2022/10/25 04:17:52;;;;;;;31.13;19.93;;;8.70;99.90;;;;;;4177423;28;20041;-62
2022/10/25 04:19:53;;;;;;;31.77;19.67;;;8.70;99.90;;;;;;4176772;28;20087;-62
2022/10/25 04:21:54;;;;;;;29.37;20.00;;;8.70;99.90;;;;;;4177166;28;20049;-63
2022/10/25 04:23:55;;;;;;;29.97;18.97;;;8.70;99.90;;;;;;4177819;28;20032;-63
2022/10/25 04:25:57;;;;;;;30.47;17.83;;;8.70;99.90;;;;;;4176217;28;20078;-65
2022/10/25 04:27:59;;;;;;;27.97;17.60;;;8.60;99.90;;;;;;4177593;28;20134;-62
2022/10/25 04:30:00;;;;;;;31.73;19.17;;;8.60;99.90;;;;;;4176786;28;20086;-63
2022/10/25 04:32:01;;;;;;;31.20;18.33;;;8.60;99.90;;;;;;4178373;28;20032;-63
2022/10/25 04:34:02;;;;;;;31.53;19.27;;;8.60;99.90;;;;;;4177120;28;20041;-65
2022/10/25 04:36:03;;;;;;;32.80;18.93;;;8.50;99.90;;;;;;4178302;28;20020;-64
2022/10/25 04:38:05;;;;;;;29.30;19.00;;;8.50;99.90;;;;;;4183813;28;20024;-62
2022/10/25 04:40:06;;;;;;;35.00;20.17;;;8.60;99.90;;;;;;4186923;28;20497;-63
2022/10/25 04:42:07;;;;;;;35.23;20.23;;;8.60;99.90;;;;;;4176917;28;20044;-63
2022/10/25 04:44:09;;;;;;;31.33;19.00;;;8.70;99.90;;;;;;4193551;28;20895;-62
2022/10/25 04:46:11;;;;;;;31.03;20.07;;;8.70;99.90;;;;;;4193022;28;20033;-64
2022/10/25 04:48:12;;;;;;;33.90;19.47;;;8.70;99.90;;;;;;4187030;28;20439;-65
2022/10/25 04:50:14;;;;;;;31.83;19.30;;;8.70;99.90;;;;;;4186005;28;20063;-64
2022/10/25 04:52:15;;;;;;;31.03;19.63;;;8.80;99.90;;;;;;4191613;28;20378;-64
2022/10/25 04:54:16;;;;;;;35.13;21.37;;;8.80;99.90;;;;;;4194190;28;20041;-63
2022/10/25 04:56:17;;;;;;;33.40;20.60;;;8.80;99.90;;;;;;4192915;28;20438;-62
2022/10/25 04:58:18;;;;;;;45.50;21.50;;;8.80;99.90;;;;;;4193485;28;20044;-63
2022/10/25 05:00:19;;;;;;;38.63;21.37;;;8.80;99.90;;;;;;4189790;28;20469;-64
2022/10/25 05:02:20;;;;;;;38.53;21.17;;;8.80;99.90;;;;;;4178220;28;20131;-64
2022/10/25 05:04:22;;;;;;;33.17;20.73;;;8.80;99.90;;;;;;4184670;28;20146;-62
2022/10/25 05:06:26;;;;;;;31.63;20.37;;;8.80;99.90;;;;;;4176797;28;20095;-62
2022/10/25 05:08:27;;;;;;;36.40;22.20;;;8.80;99.90;;;;;;4175244;28;20095;-63
2022/10/25 05:10:28;;;;;;;38.80;20.97;;;8.70;99.90;;;;;;4175689;28;20029;-61
2022/10/25 05:12:29;;;;;;;32.93;19.73;;;8.70;99.90;;;;;;4175722;28;20064;-63
2022/10/25 05:14:30;;;;;;;30.47;20.23;;;8.70;99.90;;;;;;4176927;28;20088;-64
2022/10/25 05:16:33;;;;;;;32.40;19.60;;;8.80;99.90;;;;;;4176548;28;20033;-63
2022/10/25 05:18:34;;;;;;;36.50;21.33;;;8.80;99.90;;;;;;4176990;28;20092;-64
2022/10/25 05:20:36;;;;;;;41.80;22.57;;;8.80;99.90;;;;;;4176567;28;20021;-64
2022/10/25 05:22:37;;;;;;;40.40;20.63;;;8.90;99.90;;;;;;4177427;28;20021;-64
2022/10/25 05:24:38;;;;;;;36.53;20.70;;;8.80;99.90;;;;;;4176407;28;20056;-63
2022/10/25 05:26:39;;;;;;;37.23;21.37;;;8.80;99.90;;;;;;4177053;28;20036;-64
2022/10/25 05:28:41;;;;;;;43.40;21.57;;;8.80;99.90;;;;;;4176381;28;20083;-64
2022/10/25 05:30:43;;;;;;;38.00;21.70;;;8.70;99.90;;;;;;4176535;28;20086;-63
2022/10/25 05:32:44;;;;;;;38.00;21.70;;;8.80;99.90;;;;;;4177064;28;20439;-62
2022/10/25 05:34:45;;;;;;;46.87;24.87;;;8.80;99.90;;;;;;4176158;28;20033;-63
2022/10/25 05:36:46;;;;;;;45.10;25.10;;;8.70;99.90;;;;;;4176690;28;20044;-64
2022/10/25 05:38:48;;;;;;;45.87;25.27;;;8.80;99.90;;;;;;4175314;28;20558;-65
2022/10/25 05:40:57;;;;;;;44.40;26.83;;;8.80;99.90;;;;;;4177423;28;20045;-65
2022/10/25 05:42:59;;;;;;;40.33;25.37;;;8.80;99.90;;;;;;4176154;28;20457;-63
2022/10/25 05:45:00;;;;;;;47.33;26.53;;;8.80;99.90;;;;;;4177378;28;20435;-63
2022/10/25 05:47:01;;;;;;;58.10;34.13;;;8.80;99.90;;;;;;4176250;28;20044;-63
2022/10/25 05:49:03;;;;;;;59.93;34.33;;;8.80;99.90;;;;;;4177384;28;20036;-64
2022/10/25 05:51:30;;;;;;;51.10;28.60;;;8.90;99.90;;;;;;4175305;28;20053;-62
2022/10/25 05:53:31;;;;;;;49.03;27.17;;;9.00;99.90;;;;;;4167174;28;20029;-64
2022/10/25 05:55:32;;;;;;;45.23;25.60;;;9.20;99.90;;;;;;4179176;28;20445;-63
2022/10/25 05:57:34;;;;;;;44.20;25.77;;;9.40;99.90;;;;;;4180541;28;20485;-65
2022/10/25 05:59:35;;;;;;;42.00;24.20;;;9.50;99.90;;;;;;4179259;28;20055;-64
2022/10/25 06:01:38;;;;;;;44.33;27.83;;;9.50;99.90;;;;;;4180044;28;20037;-64
2022/10/25 06:03:40;;;;;;;38.90;26.60;;;9.60;99.90;;;;;;4179592;28;20428;-63
2022/10/25 06:05:41;;;;;;;43.97;24.73;;;9.70;99.90;;;;;;4178634;28;20041;-64
2022/10/25 06:07:42;;;;;;;39.50;21.40;;;9.70;99.90;;;;;;4178964;28;20075;-66
2022/10/25 06:09:43;;;;;;;35.13;22.67;;;9.80;99.90;;;;;;4179088;28;20123;-63
2022/10/25 06:11:45;;;;;;;49.90;26.80;;;9.80;99.90;;;;;;4179142;28;20060;-62
2022/10/25 06:13:46;;;;;;;54.20;32.87;;;9.70;99.90;;;;;;4178848;28;20029;-62
2022/10/25 06:15:47;;;;;;;48.97;29.83;;;9.80;99.90;;;;;;4179475;28;20055;-62
2022/10/25 06:17:48;;;;;;;46.93;26.13;;;9.80;99.90;;;;;;4178966;28;20025;-64
2022/10/25 06:19:49;;;;;;;49.97;26.37;;;9.70;99.90;;;;;;4179261;28;20037;-64
2022/10/25 06:21:53;;;;;;;40.93;23.67;;;9.80;99.90;;;;;;4179127;28;20091;-64
2022/10/25 06:23:56;;;;;;;41.13;26.17;;;9.80;99.90;;;;;;4179220;28;20114;-63
2022/10/25 06:26:00;;;;;;;40.73;23.73;;;9.80;99.90;;;;;;4178499;28;20126;-63
2022/10/25 06:28:01;;;;;;;42.30;24.47;;;9.80;99.90;;;;;;4178677;28;20041;-64
2022/10/25 06:30:02;;;;;;;38.50;23.47;;;9.80;99.90;;;;;;4178786;28;20059;-63
2022/10/25 06:32:03;;;;;;;45.57;26.43;;;9.90;99.90;;;;;;4179670;28;20099;-63
2022/10/25 06:34:04;;;;;;;70.10;30.63;;;10.00;99.90;;;;;;4178883;28;20401;-63
2022/10/25 06:36:11;;;;;;;51.43;27.90;;;10.00;99.90;;;;;;4179474;28;20435;-63
2022/10/25 06:38:12;;;;;;;50.77;27.93;;;10.00;99.90;;;;;;4178538;28;20388;-63
2022/10/25 06:40:14;;;;;;;54.27;28.60;;;10.00;99.90;;;;;;4178448;28;20037;-63
2022/10/25 06:42:15;;;;;;;64.17;30.37;;;10.00;99.90;;;;;;4179320;28;20086;-64
2022/10/25 06:44:16;;;;;;;66.10;32.67;;;10.10;99.90;;;;;;4178558;28;20025;-63
2022/10/25 06:46:26;;;;;;;67.13;31.93;;;10.10;99.90;;;;;;4179727;28;20499;-64
2022/10/25 06:48:30;;;;;;;68.88;33.70;;;10.10;99.90;;;;;;4177594;28;20090;-64
2022/10/25 06:50:31;;;;;;;56.80;32.67;;;10.20;99.90;;;;;;4179540;28;20546;-62
2022/10/25 06:52:32;;;;;;;78.90;35.83;;;10.30;99.90;;;;;;4178292;28;20087;-62
2022/10/25 06:54:34;;;;;;;76.97;34.50;;;10.30;99.90;;;;;;4179375;28;20048;-64
2022/10/25 06:56:36;;;;;;;70.40;33.90;;;10.30;99.90;;;;;;4178502;28;20091;-64
2022/10/25 06:58:37;;;;;;;73.10;34.37;;;10.30;99.90;;;;;;4179394;28;20037;-63
2022/10/25 07:00:38;;;;;;;64.07;33.63;;;10.40;99.90;;;;;;4177380;28;20049;-64
2022/10/25 07:02:39;;;;;;;71.73;34.87;;;10.40;99.90;;;;;;4179622;28;20036;-64
2022/10/25 07:04:40;;;;;;;60.70;33.47;;;10.40;99.90;;;;;;4178424;28;20484;-63
2022/10/25 07:06:41;;;;;;;54.73;32.23;;;10.40;99.90;;;;;;4178730;28;20029;-64
2022/10/25 07:08:45;;;;;;;64.87;38.70;;;10.40;99.90;;;;;;4177707;28;20029;-64
2022/10/25 07:10:52;;;;;;;61.40;37.53;;;10.40;99.90;;;;;;4178968;28;20476;-65
2022/10/25 07:12:54;;;;;;;61.17;33.27;;;10.30;99.90;;;;;;4177730;28;20091;-63
2022/10/25 07:14:55;;;;;;;69.03;34.73;;;10.30;99.90;;;;;;4177488;28;20118;-64
2022/10/25 07:16:56;;;;;;;64.60;32.23;;;10.30;99.90;;;;;;4178804;28;20464;-64
2022/10/25 07:18:59;;;;;;;47.50;28.17;;;10.30;99.90;;;;;;4178213;28;20080;-64
2022/10/25 07:21:02;;;;;;;53.90;27.33;;;10.20;99.90;;;;;;4178210;28;20037;-64
2022/10/25 07:23:03;;;;;;;49.73;30.23;;;10.20;99.90;;;;;;4178300;28;20025;-64
2022/10/25 07:25:05;;;;;;;55.10;32.73;;;10.20;99.90;;;;;;4177924;28;20178;-65
2022/10/25 07:27:06;;;;;;;52.57;30.40;;;10.10;99.90;;;;;;4176986;28;20063;-64
2022/10/25 07:29:07;;;;;;;63.97;34.73;;;10.10;99.90;;;;;;4178447;28;20433;-63
2022/10/25 07:31:14;;;;;;;57.20;34.63;;;10.10;99.90;;;;;;4177954;28;20029;-63
2022/10/25 07:33:18;;;;;;;66.00;36.00;;;10.20;99.90;;;;;;4178412;28;20045;-64
2022/10/25 07:35:19;;;;;;;61.87;36.47;;;10.20;99.90;;;;;;4176912;28;20053;-64
2022/10/25 07:37:20;;;;;;;54.83;31.43;;;10.30;99.90;;;;;;4178250;28;20036;-65
2022/10/25 07:39:21;;;;;;;54.47;29.33;;;10.30;99.90;;;;;;4176966;28;20087;-63
2022/10/25 07:41:23;;;;;;;56.57;30.20;;;10.40;99.90;;;;;;4179220;28;20090;-64
2022/10/25 07:43:25;;;;;;;48.77;27.53;;;10.40;99.90;;;;;;4159203;28;20041;-64
2022/10/25 07:45:26;;;;;;;46.53;28.37;;;10.50;99.90;;;;;;4177503;28;20106;-64
2022/10/25 07:47:27;;;;;;;49.67;28.07;;;10.50;99.90;;;;;;4178090;28;20082;-65
2022/10/25 07:49:29;;;;;;;45.93;28.73;;;10.60;99.90;;;;;;4159981;28;20547;-64
2022/10/25 07:51:30;;;;;;;43.10;27.73;;;10.60;99.90;;;;;;4178409;28;20091;-64
2022/10/25 07:53:31;;;;;;;46.63;24.67;;;10.70;99.90;;;;;;4177074;28;20083;-63
2022/10/25 07:55:32;;;;;;;45.53;27.60;;;10.70;99.90;;;;;;4178500;28;20033;-66
2022/10/25 07:57:33;;;;;;;49.67;29.03;;;10.80;99.90;;;;;;4159059;28;20037;-63
2022/10/25 07:59:34;;;;;;;54.00;31.67;;;10.80;99.90;;;;;;4178462;28;20067;-62
2022/10/25 08:01:36;;;;;;;41.93;28.23;;;10.90;99.90;;;;;;4177269;28;20045;-65
2022/10/25 08:03:37;;;;;;;44.17;25.73;;;10.90;99.90;;;;;;4178646;28;20071;-64
2022/10/25 08:05:38;;;;;;;45.97;25.33;;;10.90;99.90;;;;;;4176576;28;20048;-63
2022/10/25 08:07:39;;;;;;;37.77;24.17;;;11.00;99.90;;;;;;4178575;28;20139;-63
2022/10/25 08:09:40;;;;;;;41.30;24.47;;;11.00;99.90;;;;;;4177113;28;20439;-63
2022/10/25 08:11:42;;;;;;;45.47;25.60;;;11.00;99.90;;;;;;4178396;28;20083;-65
2022/10/25 08:13:43;;;;;;;39.80;25.27;;;11.00;99.90;;;;;;4158903;28;20025;-64
2022/10/25 08:15:55;;;;;;;42.27;24.50;;;11.10;99.90;;;;;;4178083;28;20439;-64
2022/10/25 08:18:00;;;;;;;42.40;25.30;;;11.20;99.90;;;;;;4176568;28;20051;-64
2022/10/25 08:20:01;;;;;;;53.47;28.00;;;11.30;99.90;;;;;;4176877;28;20484;-63
2022/10/25 08:22:02;;;;;;;43.10;25.33;;;11.30;99.90;;;;;;4177547;28;20037;-63
2022/10/25 08:24:04;;;;;;;44.00;24.47;;;11.40;99.90;;;;;;4176656;28;20029;-63
2022/10/25 08:26:05;;;;;;;48.37;26.57;;;11.40;99.90;;;;;;4177510;28;20118;-64
2022/10/25 08:28:07;;;;;;;46.83;27.23;;;11.50;99.90;;;;;;4176923;28;20085;-65
2022/10/25 08:30:08;;;;;;;45.20;27.30;;;11.60;99.90;;;;;;4177622;28;20033;-64
2022/10/25 08:32:09;;;;;;;53.90;28.77;;;11.70;99.90;;;;;;4175879;28;20045;-64
2022/10/25 08:34:10;;;;;;;45.77;29.17;;;11.80;99.90;;;;;;4159580;28;20064;-62
2022/10/25 08:36:12;;;;;;;50.33;28.70;;;11.90;99.90;;;;;;4176493;28;20044;-63
2022/10/25 08:38:13;;;;;;;44.43;27.80;;;12.10;99.90;;;;;;4177908;28;20032;-62
2022/10/25 08:40:19;;;;;;;59.40;28.43;;;12.10;99.90;;;;;;4176577;28;20021;-63
2022/10/25 08:42:57;;;;;;;46.27;28.10;;;12.10;99.90;;;;;;4176668;28;20114;-63
2022/10/25 08:45:19;;;;;;;50.53;27.10;;;12.30;99.90;;;;;;4176804;28;20033;-63
2022/10/25 08:47:37;;;;;;;42.20;24.20;;;12.50;99.90;;;;;;4177780;28;20091;-62
2022/10/25 08:49:59;;;;;;;37.20;21.53;;;12.60;99.90;;;;;;4176848;28;20095;-63
2022/10/25 08:52:01;;;;;;;34.43;19.77;;;12.60;99.90;;;;;;4177537;28;20407;-62
2022/10/25 08:54:17;;;;;;;38.10;22.07;;;12.60;99.90;;;;;;4176852;28;20082;-64
2022/10/25 08:56:18;;;;;;;36.77;23.33;;;12.60;99.90;;;;;;4177255;28;20515;-63
2022/10/25 08:58:41;;;;;;;33.20;20.27;;;12.50;99.90;;;;;;4176848;28;20094;-63
2022/10/25 09:00:45;;;;;;;30.83;18.83;;;12.60;99.90;;;;;;4177307;28;20079;-63
2022/10/25 09:02:58;;;;;;;32.37;19.03;;;12.60;99.90;;;;;;4175906;28;20111;-63
2022/10/25 09:04:59;;;;;;;29.70;18.50;;;12.60;99.90;;;;;;4177264;28;20409;-66
2022/10/25 09:07:24;;;;;;;26.33;17.23;;;12.70;99.90;;;;;;4175743;28;20045;-63
2022/10/25 09:09:46;;;;;;;25.00;16.73;;;12.70;99.90;;;;;;4177115;28;20350;-63
2022/10/25 09:11:47;;;;;;;25.77;17.43;;;12.70;99.90;;;;;;4176107;28;20033;-65
2022/10/25 09:13:48;;;;;;;27.20;16.03;;;12.70;99.90;;;;;;4176994;28;20067;-63
2022/10/25 09:16:02;;;;;;;27.10;14.97;;;12.70;99.90;;;;;;4176613;28;20037;-63
2022/10/25 09:18:18;;;;;;;25.00;16.03;;;12.70;99.90;;;;;;4176985;28;20037;-63
2022/10/25 09:20:30;;;;;;;23.90;15.93;;;12.80;99.90;;;;;;4176777;28;20427;-65
2022/10/25 09:22:46;;;;;;;24.47;14.70;;;12.80;99.90;;;;;;4176841;28;20026;-63
2022/10/25 09:24:59;;;;;;;26.97;14.30;;;12.80;99.90;;;;;;4177022;28;20076;-65
2022/10/25 09:27:14;;;;;;;24.70;14.17;;;12.70;99.90;;;;;;4176761;28;20469;-64
2022/10/25 09:29:24;;;;;;;24.03;15.37;;;12.70;99.90;;;;;;4179129;28;20078;-64
2022/10/25 09:31:25;;;;;;;29.67;14.57;;;12.70;99.90;;;;;;4179998;28;20070;-64
2022/10/25 09:33:29;;;;;;;25.00;14.20;;;12.70;99.90;;;;;;4180410;28;20086;-63
2022/10/25 09:35:42;;;;;;;20.23;13.70;;;12.70;99.90;;;;;;4178913;28;20443;-64
2022/10/25 09:37:51;;;;;;;22.83;14.33;;;12.70;99.90;;;;;;4180436;28;20029;-65
2022/10/25 09:39:57;;;;;;;23.47;14.77;;;12.80;99.90;;;;;;4178796;28;20444;-64
2022/10/25 09:42:00;;;;;;;26.27;14.17;;;12.80;99.90;;;;;;4180323;28;20075;-64
2022/10/25 09:44:29;;;;;;;26.40;13.50;;;12.80;99.90;;;;;;4180182;28;21029;-64
2022/10/25 09:46:42;;;;;;;24.60;13.10;;;12.80;99.90;;;;;;4180311;28;20017;-64
2022/10/25 09:49:01;;;;;;;24.07;13.63;;;12.90;99.90;;;;;;4179573;28;20013;-64
2022/10/25 09:51:32;;;;;;;30.63;13.90;;;12.80;99.90;;;;;;4180238;28;20056;-63
2022/10/25 09:53:39;;;;;;;20.10;13.88;;;12.80;99.90;;;;;;4178834;28;20041;-64
2022/10/25 09:55:48;;;;;;;26.00;14.80;;;12.70;99.90;;;;;;4180176;28;20298;-64
2022/10/25 09:57:49;;;;;;;31.63;16.77;;;12.70;99.90;;;;;;4178083;28;20029;-63
2022/10/25 09:59:50;;;;;;;24.33;16.27;;;12.70;99.90;;;;;;4180366;28;20021;-63
2022/10/25 10:01:52;;;;;;;33.63;18.23;;;12.70;99.90;;;;;;4178446;28;20029;-64
2022/10/25 10:04:05;;;;;;;35.10;18.97;;;12.70;99.90;;;;;;4179293;28;20057;-65
2022/10/25 10:06:17;;;;;;;27.70;17.30;;;12.70;99.90;;;;;;4179235;28;20033;-64
2022/10/25 10:08:18;;;;;;;28.17;18.40;;;12.70;99.90;;;;;;4178957;28;20037;-63
2022/10/25 10:10:26;;;;;;;33.67;19.73;;;12.70;99.90;;;;;;4178350;28;20037;-63
2022/10/25 10:12:31;;;;;;;37.07;19.40;;;12.60;99.90;;;;;;4179842;28;20029;-63
2022/10/25 10:14:40;;;;;;;38.37;20.53;;;12.60;99.90;;;;;;4179354;28;20017;-63
2022/10/25 10:17:01;;;;;;;30.53;18.93;;;12.70;99.90;;;;;;4179681;28;20099;-63
2022/10/25 10:19:18;;;;;;;42.27;19.60;;;12.70;99.90;;;;;;4177818;28;20029;-64
2022/10/25 10:21:21;;;;;;;39.33;19.43;;;12.90;99.90;;;;;;4180071;28;20315;-64
2022/10/25 10:23:22;;;;;;;34.37;19.17;;;12.90;99.90;;;;;;4179061;28;20033;-66
2022/10/25 10:25:26;;;;;;;31.47;18.90;;;12.90;99.90;;;;;;4179200;28;20045;-63
2022/10/25 10:27:28;;;;;;;38.83;17.97;;;13.00;99.90;;;;;;4179228;28;20455;-62
2022/10/25 10:29:33;;;;;;;31.90;17.77;;;13.00;99.90;;;;;;4179399;28;20136;-65
2022/10/25 10:31:40;;;;;;;30.43;17.67;;;13.00;99.90;;;;;;4178230;28;20037;-63
2022/10/25 10:33:47;;;;;;;32.57;18.57;;;13.10;99.90;;;;;;4178124;28;20099;-64
2022/10/25 10:35:53;;;;;;;29.97;17.90;;;13.00;99.90;;;;;;4178218;28;20110;-64
2022/10/25 10:38:13;;;;;;;36.17;18.90;;;13.00;99.90;;;;;;4178788;28;20440;-63
2022/10/25 10:40:17;;;;;;;38.40;19.05;;;13.10;99.90;;;;;;4178028;28;20032;-63
2022/10/25 10:42:19;;;;;;;40.40;20.07;;;13.10;99.90;;;;;;4178916;28;20512;-63